Date,TemperatureHighF,TemperatureAvgF,TemperatureLowF,DewpointHighF,DewpointAvgF,DewpointLowF,HumidityHigh,HumidityAvg,HumidityLow,PressureMaxIn,PressureMinIn,WindSpeedMaxMPH,WindSpeedAvgMPH,GustSpeedMaxMPH,PrecipitationSumIn
2013-9-1,91.3,76.7,66.2,75.0,70.0,65.0,97,81,53,29.77,29.68,6,0,13,0.46
2013-9-2,90.7,78.3,68.4,75.0,70.9,68.0,99,80,53,29.73,29.64,5,0,9,0.01
2013-9-3,83.4,73.8,62.9,70.0,62.7,56.0,95,70,45,29.91,29.67,8,2,14,0.00
2013-9-4,82.4,68.2,54.5,60.0,56.5,53.0,95,70,38,30.03,29.92,5,1,10,0.00
2013-9-5,80.3,67.5,55.5,66.0,57.4,51.0,98,73,44,30.07,29.96,7,2,14,0.01
2013-9-6,75.2,62.1,51.0,53.0,50.2,47.0,91,68,38,30.21,30.07,3,0,7,0.00
2013-9-7,81.4,64.5,48.3,62.0,55.1,47.0,97,75,44,30.08,29.87,4,0,6,0.00
2013-9-8,86.0,72.0,59.8,68.0,63.7,57.0,96,77,54,29.99,29.82,6,1,11,0.02
2013-9-9,76.6,66.5,56.9,65.0,58.3,51.0,89,76,60,30.14,30.00,2,0,8,0.00
2013-9-10,93.7,78.1,65.1,75.0,69.8,63.0,96,78,52,30.10,29.99,5,0,7,0.00
2013-9-11,94.6,80.6,68.8,77.0,72.1,68.0,98,77,51,30.07,29.91,7,0,11,0.00
2013-9-12,93.1,78.4,68.5,74.0,69.1,64.0,96,75,47,29.92,29.65,6,1,12,0.00
2013-9-13,77.5,67.0,55.1,66.0,57.0,49.0,92,72,41,29.89,29.65,9,3,19,0.02
2013-9-14,67.1,56.7,46.5,49.0,46.3,44.0,93,71,46,30.11,29.91,9,2,14,0.00
2013-9-15,78.2,60.4,42.4,58.0,51.0,41.0,98,74,44,30.17,30.00,2,0,7,0.00
2013-9-16,71.2,61.9,54.0,60.0,56.8,52.0,96,84,57,30.18,29.96,5,1,10,0.19
2013-9-17,68.5,56.5,45.4,53.0,45.8,42.0,95,70,41,30.38,30.18,4,0,7,0.00
2013-9-18,70.5,55.4,39.7,52.0,46.8,39.0,98,76,47,30.27,30.11,4,0,9,0.00
2013-9-19,78.7,61.0,47.2,62.0,53.8,46.0,98,79,50,30.13,30.00,3,0,5,0.00
2013-9-20,80.3,66.6,52.0,66.0,59.1,51.0,98,79,55,30.01,29.86,5,1,9,0.00
2013-9-21,68.5,64.4,60.1,65.0,61.6,59.0,97,91,82,29.87,29.61,4,1,10,0.56
2013-9-22,72.1,61.0,50.9,60.0,53.1,47.0,99,78,51,29.91,29.67,8,1,16,0.00
2013-9-23,65.4,56.0,44.7,49.0,45.5,43.0,93,70,48,30.04,29.91,11,1,12,0.00
2013-9-24,72.2,53.9,38.5,52.0,45.7,38.0,98,77,42,30.07,29.89,4,0,7,0.00
2013-9-25,74.6,56.5,42.3,54.0,47.6,41.0,98,76,38,29.95,29.82,5,0,6,0.00
2013-9-26,74.5,57.9,44.9,57.0,50.4,44.0,98,79,47,30.02,29.88,4,0,8,0.00
2013-9-27,71.8,58.4,47.9,60.0,53.5,47.0,97,85,61,30.17,30.02,3,0,5,0.01
2013-9-28,67.6,58.0,49.2,58.0,52.7,48.0,98,84,60,30.25,30.16,2,0,7,0.01
2013-9-29,72.2,55.9,45.0,58.0,49.4,44.0,98,82,44,30.16,30.00,5,0,8,0.00
2013-9-30,76.6,60.3,46.3,58.0,52.3,45.0,98,78,45,30.04,29.91,3,0,7,0.00